Campo Délio Jardim de Mattos Airport
SBAF : now visible

Airfield :











YOU CAN JOIN US ON...

 
LOGIN :

Register | Disclaimer

   EN    FR    IT 

 









Legend :    VFR   Marginal VFR   IFR   Intensive IFR   Very Intensive IFR
Visi :
Ceiling :
>= 8 km
>= 3000ft
5 to 8 km
1000 to 3000 ft
1500m to 5 km
500 to 1000 ft
800 to 1500m
200 to 500 ft
< 800m
< 200 ft
Symbols :   Thunderstorms  Fog  Heavy snow  Heavy precipitations  Wind > 20 kt






- Airport Elevation : 110 ft
- IATA code : 0


SBAF - Campo Délio Jardim de Mattos

METAR N/A
TAF TAF SBAF
Valid from the 04 at 06:00 until the 04 at 18:00 UTC


040300Z 0406/0418 29005KT 9999 SCT020 TN23/0409Z TX33/0417Z
BECMG 0409/0411 13005KT FEW025
BECMG 0412/0414 07005KT CAVOK
BECMG 0416/0418 16005KT 9999 SCT030 FEW035TCU RMK PDG



MET'MAP, your aeronautical weather chart ! - Copyright ORBIFLY December 2007 - Disclaimer

ORBIFLY MET'MAP TEAM :

Programming & Development : Alexandra Zaïnal
Concept & original design : Baudouin d'Aumeries
Assistance for programming : Marc-Olivier Méhu
Technical & hardware support : Manuel Goepfert

Contact : metmap@orbifly.com




SOURCES & CREDITS :

   NOAA       Earth
Advisory